• Join FlightAware (Why Join?)
  • Login
  • US Flag 
10:17AM EDT


 

Airport Tracker/Info


-or-


 

Live Flight TrackerFlight Track Log ✈ KAP927 ✈ 26-Jun-2013 ✈ KALB - KBOS

Flight Track Log - Related Links

Times and Time Zones

All times are in EDT time to prevent confusion due to time zone crossing. See the KAP927 flight status page for this flight to view local times or setup timezone preferences in your user account.

Time Position Orientation Groundspeed Altitude Reporting Facility
EDT Latitude Longitude Course Direction KTS MPH feet Rate Location/Type
08:59AM 42.7653 -73.8033 90° East 119 137 900  Level Boston Center
09:00AM 42.7819 -73.7950 20° North 121 139 1,400 540 Climbing Boston Center
09:01AM 42.7847 -73.7442 86° East 140 161 1,800 540 Climbing Boston Center
09:02AM 42.7833 -73.6933 92° East 139 160 2,500 660 Climbing Boston Center
09:03AM 42.7817 -73.6422 93° East 140 161 3,100 540 Climbing Boston Center
09:04AM 42.7822 -73.5886 89° East 148 170 3,600 540 Climbing Boston Center
09:05AM 42.7667 -73.4987 90° East  Level FlightAware Approximate
09:05AM 42.7828 -73.5319 89° East 147 169 4,300  Level Boston Center
09:06AM 42.7811 -73.4783 92° East 142 163 4,900 540 Climbing Boston Center
09:07AM 42.7797 -73.3961 91° East 150 173 5,700 540 Climbing Boston Center
09:08AM 42.7761 -73.3508 96° East 145 167 6,300 600 Climbing Boston Center
09:09AM 42.7639 -73.2914 106° East 139 160 6,900 360 Climbing Boston Center
09:10AM 42.7539 -73.2403 105° East 146 168 7,100 60 Climbing Boston Center
09:11AM 42.7419 -73.1694 103° East 166 191 7,100 -60 Level Boston Center
09:12AM 42.7319 -73.1044 102° East 180 207 7,000 -60 Descending Boston Center
09:13AM 42.7197 -73.0336 103° East 180 207 7,000  Level Boston Center
09:14AM 42.7097 -72.9742 103° East 180 207 7,100  Climbing Boston Center
09:15AM 42.6994 -72.9092 102° East 180 207 7,100 -60 Level Boston Center
09:16AM 42.6894 -72.8411 101° East 180 207 7,000  Descending Boston Center
09:17AM 42.6769 -72.7789 105° East 180 207 7,100  Climbing Boston Center
09:18AM 42.6647 -72.7139 104° East 180 207 7,100  Level Boston Center
09:19AM 42.6525 -72.6489 104° East 180 207 7,100  Level Boston Center
09:20AM 42.6419 -72.5869 103° East 180 207 7,100  Level Boston Center
09:21AM 42.6297 -72.5247 105° East 180 207 7,100  Level Boston Center
09:22AM 42.6192 -72.4597 102° East 175 201 7,100  Level Boston Center
09:23AM 42.6047 -72.3808 104° East 175 201 7,100  Level Boston Center
09:24AM 42.5942 -72.3189 103° East 175 201 7,100  Level Boston Center
09:25AM 42.5817 -72.2456 103° East 175 201 7,100  Level Boston Center
09:26AM 42.5689 -72.1864 106° East 175 201 7,100  Level Boston Center
09:27AM 42.5583 -72.1217 102° East 175 201 7,100  Level Boston Center
09:28AM 42.5456 -72.0569 105° East 175 201 7,100  Level Boston Center
09:29AM 42.5392 -71.9919 98° East 175 201 7,100  Level Boston Center
09:30AM 42.5347 -71.9272 95° East 175 201 7,100  Level Boston Center
09:31AM 42.5281 -71.8625 98° East 175 201 7,100  Level Boston Center
09:32AM 42.5236 -71.8033 96° East 175 201 7,100  Level Boston Center
09:33AM 42.5169 -71.7358 98° East 175 201 7,100  Level Boston Center
09:34AM 42.5125 -71.6797 96° East 175 201 7,100 -60 Level Boston Center
09:35AM 42.5058 -71.6261 100° East 175 201 7,000 -420 Descending Boston Center
09:36AM 42.5000 -71.5167 94° East 197 227 6,300 -480 Descending KA90
09:37AM 42.4833 -71.4667 114° Southeast 195 224 6,100 -240 Descending KA90
09:38AM 42.4833 -71.4000 90° East 179 206 5,900 -480 Descending KA90
09:40AM 42.4833 -71.3000 90° East 197 227 5,100 -720 Descending KA90
09:40AM 42.4833 -71.2333 90° East 200 230 4,500 -780 Descending KA90
09:41AM 42.4833 -71.1667 90° East 199 229 3,700 -900 Descending KA90
09:42AM 42.4667 -71.1000 109° East 186 214 2,700 -840 Descending KA90
09:43AM 42.4500 -71.0333 109° East 183 211 2,000 -840 Descending KA90
09:44AM 42.4167 -70.9833 132° Southeast 174 200 1,100 -840 Descending KA90
09:45AM 42.3833 -71.0000 200° South 127 146 500 -720 Descending KA90
09:47AM 42.3630 -71.0064 270° West  Level Estimated
09:54AM 42.3630 -71.0064 270° West  Level Estimated